sensor_id;sensor_type;location;lat;lon;timestamp;temperature;humidity
73112;HTU21D;61301;51.956;5.876;2023-05-10T00:00:39;17.94;66.28
73112;HTU21D;61301;51.956;5.876;2023-05-10T00:03:05;17.88;66.49
73112;HTU21D;61301;51.956;5.876;2023-05-10T00:05:32;17.91;66.50
73112;HTU21D;61301;51.956;5.876;2023-05-10T00:07:58;17.89;66.65
73112;HTU21D;61301;51.956;5.876;2023-05-10T00:10:24;17.98;66.57
73112;HTU21D;61301;51.956;5.876;2023-05-10T00:12:50;18.05;66.45
73112;HTU21D;61301;51.956;5.876;2023-05-10T00:15:16;18.07;66.43
73112;HTU21D;61301;51.956;5.876;2023-05-10T00:17:42;18.05;66.40
73112;HTU21D;61301;51.956;5.876;2023-05-10T00:20:09;18.02;66.46
73112;HTU21D;61301;51.956;5.876;2023-05-10T00:22:35;17.89;66.75
73112;HTU21D;61301;51.956;5.876;2023-05-10T00:25:01;17.95;66.72
73112;HTU21D;61301;51.956;5.876;2023-05-10T00:27:27;17.91;66.78
73112;HTU21D;61301;51.956;5.876;2023-05-10T00:29:53;17.83;66.98
73112;HTU21D;61301;51.956;5.876;2023-05-10T00:32:19;17.78;67.13
73112;HTU21D;61301;51.956;5.876;2023-05-10T00:34:45;17.80;67.07
73112;HTU21D;61301;51.956;5.876;2023-05-10T00:37:11;17.81;67.01
73112;HTU21D;61301;51.956;5.876;2023-05-10T00:39:37;17.78;67.16
73112;HTU21D;61301;51.956;5.876;2023-05-10T00:42:03;17.80;67.09
73112;HTU21D;61301;51.956;5.876;2023-05-10T00:44:30;17.82;66.98
73112;HTU21D;61301;51.956;5.876;2023-05-10T00:46:57;17.79;67.05
73112;HTU21D;61301;51.956;5.876;2023-05-10T00:49:23;17.79;67.12
73112;HTU21D;61301;51.956;5.876;2023-05-10T00:51:50;17.83;67.04
73112;HTU21D;61301;51.956;5.876;2023-05-10T00:54:16;17.87;67.01
73112;HTU21D;61301;51.956;5.876;2023-05-10T00:56:42;17.93;66.90
73112;HTU21D;61301;51.956;5.876;2023-05-10T00:59:15;17.95;66.84
73112;HTU21D;61301;51.956;5.876;2023-05-10T01:01:45;17.97;66.73
73112;HTU21D;61301;51.956;5.876;2023-05-10T01:04:12;17.95;66.78
73112;HTU21D;61301;51.956;5.876;2023-05-10T01:06:42;17.94;66.81
73112;HTU21D;61301;51.956;5.876;2023-05-10T01:09:08;17.93;66.83
73112;HTU21D;61301;51.956;5.876;2023-05-10T01:11:35;17.87;67.10
73112;HTU21D;61301;51.956;5.876;2023-05-10T01:14:02;17.87;67.07
73112;HTU21D;61301;51.956;5.876;2023-05-10T01:16:32;17.69;67.75
73112;HTU21D;61301;51.956;5.876;2023-05-10T01:18:58;17.60;68.07
73112;HTU21D;61301;51.956;5.876;2023-05-10T01:21:35;17.72;67.91
73112;HTU21D;61301;51.956;5.876;2023-05-10T01:27:02;17.62;68.25
73112;HTU21D;61301;51.956;5.876;2023-05-10T01:35:22;17.65;68.46
73112;HTU21D;61301;51.956;5.876;2023-05-10T01:38:13;17.65;68.46
73112;HTU21D;61301;51.956;5.876;2023-05-10T01:41:10;17.65;68.46
73112;HTU21D;61301;51.956;5.876;2023-05-10T01:43:59;17.65;68.53
73112;HTU21D;61301;51.956;5.876;2023-05-10T01:46:31;17.62;68.61
73112;HTU21D;61301;51.956;5.876;2023-05-10T01:49:00;17.66;68.62
73112;HTU21D;61301;51.956;5.876;2023-05-10T01:51:33;17.66;68.65
73112;HTU21D;61301;51.956;5.876;2023-05-10T01:54:02;17.59;68.75
73112;HTU21D;61301;51.956;5.876;2023-05-10T01:56:30;17.59;68.78
73112;HTU21D;61301;51.956;5.876;2023-05-10T01:58:58;17.56;68.92
73112;HTU21D;61301;51.956;5.876;2023-05-10T02:01:26;17.48;69.20
73112;HTU21D;61301;51.956;5.876;2023-05-10T02:03:55;17.47;69.22
73112;HTU21D;61301;51.956;5.876;2023-05-10T02:06:22;17.59;69.00
73112;HTU21D;61301;51.956;5.876;2023-05-10T02:08:50;17.54;69.14
73112;HTU21D;61301;51.956;5.876;2023-05-10T02:11:18;17.58;69.10
73112;HTU21D;61301;51.956;5.876;2023-05-10T02:13:48;17.64;68.99
73112;HTU21D;61301;51.956;5.876;2023-05-10T02:16:16;17.62;68.87
73112;HTU21D;61301;51.956;5.876;2023-05-10T02:18:44;17.62;68.87
73112;HTU21D;61301;51.956;5.876;2023-05-10T02:21:12;17.52;69.09
73112;HTU21D;61301;51.956;5.876;2023-05-10T02:23:39;17.51;69.07
73112;HTU21D;61301;51.956;5.876;2023-05-10T02:26:06;17.48;69.15
73112;HTU21D;61301;51.956;5.876;2023-05-10T02:28:33;17.51;69.04
73112;HTU21D;61301;51.956;5.876;2023-05-10T02:30:59;17.49;69.01
73112;HTU21D;61301;51.956;5.876;2023-05-10T02:33:26;17.50;69.07
73112;HTU21D;61301;51.956;5.876;2023-05-10T02:35:54;17.44;69.21
73112;HTU21D;61301;51.956;5.876;2023-05-10T02:38:21;17.41;69.25
73112;HTU21D;61301;51.956;5.876;2023-05-10T02:40:50;17.39;69.45
73112;HTU21D;61301;51.956;5.876;2023-05-10T02:43:17;17.40;69.38
73112;HTU21D;61301;51.956;5.876;2023-05-10T02:45:47;17.37;69.39
73112;HTU21D;61301;51.956;5.876;2023-05-10T02:48:13;17.35;69.33
73112;HTU21D;61301;51.956;5.876;2023-05-10T02:50:43;17.36;69.26
73112;HTU21D;61301;51.956;5.876;2023-05-10T02:53:14;17.35;69.28
73112;HTU21D;61301;51.956;5.876;2023-05-10T02:55:43;17.32;69.26
73112;HTU21D;61301;51.956;5.876;2023-05-10T02:58:10;17.22;69.55
73112;HTU21D;61301;51.956;5.876;2023-05-10T03:00:36;17.18;69.52
73112;HTU21D;61301;51.956;5.876;2023-05-10T03:03:02;17.18;69.42
73112;HTU21D;61301;51.956;5.876;2023-05-10T03:05:29;17.15;69.55
73112;HTU21D;61301;51.956;5.876;2023-05-10T03:07:59;17.17;69.55
73112;HTU21D;61301;51.956;5.876;2023-05-10T03:10:27;17.18;69.44
73112;HTU21D;61301;51.956;5.876;2023-05-10T03:13:16;17.21;69.33
73112;HTU21D;61301;51.956;5.876;2023-05-10T03:20:47;17.00;69.48
73112;HTU21D;61301;51.956;5.876;2023-05-10T03:25:44;17.01;69.41
73112;HTU21D;61301;51.956;5.876;2023-05-10T03:28:12;17.01;69.38
73112;HTU21D;61301;51.956;5.876;2023-05-10T03:30:39;16.98;69.42
73112;HTU21D;61301;51.956;5.876;2023-05-10T03:33:07;16.94;69.42
73112;HTU21D;61301;51.956;5.876;2023-05-10T03:35:36;16.99;69.29
73112;HTU21D;61301;51.956;5.876;2023-05-10T03:38:02;16.95;69.19
73112;HTU21D;61301;51.956;5.876;2023-05-10T03:40:29;16.98;69.15
73112;HTU21D;61301;51.956;5.876;2023-05-10T03:43:00;16.95;69.08
73112;HTU21D;61301;51.956;5.876;2023-05-10T03:45:26;17.02;69.04
73112;HTU21D;61301;51.956;5.876;2023-05-10T03:47:52;16.95;69.13
73112;HTU21D;61301;51.956;5.876;2023-05-10T03:50:20;16.91;69.23
73112;HTU21D;61301;51.956;5.876;2023-05-10T03:52:47;16.88;69.19
73112;HTU21D;61301;51.956;5.876;2023-05-10T03:55:13;16.92;69.17
73112;HTU21D;61301;51.956;5.876;2023-05-10T03:57:39;16.91;69.08
73112;HTU21D;61301;51.956;5.876;2023-05-10T04:00:06;16.89;69.08
73112;HTU21D;61301;51.956;5.876;2023-05-10T04:02:40;16.88;69.03
73112;HTU21D;61301;51.956;5.876;2023-05-10T04:05:09;16.88;68.94
73112;HTU21D;61301;51.956;5.876;2023-05-10T04:07:35;16.94;68.83
73112;HTU21D;61301;51.956;5.876;2023-05-10T04:10:01;16.89;68.91
73112;HTU21D;61301;51.956;5.876;2023-05-10T04:12:27;16.91;68.85
73112;HTU21D;61301;51.956;5.876;2023-05-10T04:14:53;17.02;68.61
73112;HTU21D;61301;51.956;5.876;2023-05-10T04:17:19;17.00;68.61
73112;HTU21D;61301;51.956;5.876;2023-05-10T04:19:45;17.05;68.43
73112;HTU21D;61301;51.956;5.876;2023-05-10T04:22:11;17.02;68.40
73112;HTU21D;61301;51.956;5.876;2023-05-10T04:24:37;17.06;68.13
73112;HTU21D;61301;51.956;5.876;2023-05-10T04:27:03;17.08;68.19
73112;HTU21D;61301;51.956;5.876;2023-05-10T04:29:29;17.23;67.84
73112;HTU21D;61301;51.956;5.876;2023-05-10T04:31:55;17.16;67.55
73112;HTU21D;61301;51.956;5.876;2023-05-10T04:34:22;17.20;67.60
73112;HTU21D;61301;51.956;5.876;2023-05-10T04:36:48;17.17;67.59
73112;HTU21D;61301;51.956;5.876;2023-05-10T04:39:14;17.14;67.49
73112;HTU21D;61301;51.956;5.876;2023-05-10T04:41:40;17.15;67.49
73112;HTU21D;61301;51.956;5.876;2023-05-10T04:44:06;17.11;67.49
73112;HTU21D;61301;51.956;5.876;2023-05-10T04:46:32;17.16;67.50
73112;HTU21D;61301;51.956;5.876;2023-05-10T04:48:58;17.18;67.49
73112;HTU21D;61301;51.956;5.876;2023-05-10T04:51:24;17.28;67.39
73112;HTU21D;61301;51.956;5.876;2023-05-10T04:53:50;17.33;67.33
73112;HTU21D;61301;51.956;5.876;2023-05-10T04:56:16;17.32;67.39
73112;HTU21D;61301;51.956;5.876;2023-05-10T04:58:42;17.35;67.27
73112;HTU21D;61301;51.956;5.876;2023-05-10T05:01:08;17.44;66.90
73112;HTU21D;61301;51.956;5.876;2023-05-10T05:03:36;17.47;66.98
73112;HTU21D;61301;51.956;5.876;2023-05-10T05:06:02;17.61;66.65
73112;HTU21D;61301;51.956;5.876;2023-05-10T05:08:29;17.51;66.84
73112;HTU21D;61301;51.956;5.876;2023-05-10T05:10:55;17.47;67.03
73112;HTU21D;61301;51.956;5.876;2023-05-10T05:13:21;17.55;66.98
73112;HTU21D;61301;51.956;5.876;2023-05-10T05:15:47;17.56;66.50
73112;HTU21D;61301;51.956;5.876;2023-05-10T05:18:13;17.40;66.94
73112;HTU21D;61301;51.956;5.876;2023-05-10T05:20:39;17.44;66.87
73112;HTU21D;61301;51.956;5.876;2023-05-10T05:23:05;17.49;66.72
73112;HTU21D;61301;51.956;5.876;2023-05-10T05:25:31;17.49;66.67
73112;HTU21D;61301;51.956;5.876;2023-05-10T05:27:57;17.40;66.97
73112;HTU21D;61301;51.956;5.876;2023-05-10T05:30:23;17.47;66.83
73112;HTU21D;61301;51.956;5.876;2023-05-10T05:32:52;17.40;67.07
73112;HTU21D;61301;51.956;5.876;2023-05-10T05:35:18;17.40;67.07
73112;HTU21D;61301;51.956;5.876;2023-05-10T05:37:44;17.48;67.09
73112;HTU21D;61301;51.956;5.876;2023-05-10T05:40:13;17.48;67.20
73112;HTU21D;61301;51.956;5.876;2023-05-10T05:42:39;17.50;67.20
73112;HTU21D;61301;51.956;5.876;2023-05-10T05:45:06;17.55;67.09
73112;HTU21D;61301;51.956;5.876;2023-05-10T05:47:34;17.60;66.89
73112;HTU21D;61301;51.956;5.876;2023-05-10T05:50:00;17.62;66.78
73112;HTU21D;61301;51.956;5.876;2023-05-10T05:52:26;17.61;66.84
73112;HTU21D;61301;51.956;5.876;2023-05-10T05:54:52;17.56;66.99
73112;HTU21D;61301;51.956;5.876;2023-05-10T05:57:18;17.58;66.93
73112;HTU21D;61301;51.956;5.876;2023-05-10T05:59:44;17.53;67.06
73112;HTU21D;61301;51.956;5.876;2023-05-10T06:02:10;17.46;67.20
73112;HTU21D;61301;51.956;5.876;2023-05-10T06:04:36;17.48;67.23
73112;HTU21D;61301;51.956;5.876;2023-05-10T06:07:02;17.48;67.27
73112;HTU21D;61301;51.956;5.876;2023-05-10T06:09:28;17.53;67.23
73112;HTU21D;61301;51.956;5.876;2023-05-10T06:11:55;17.53;67.34
73112;HTU21D;61301;51.956;5.876;2023-05-10T06:14:21;17.53;67.16
73112;HTU21D;61301;51.956;5.876;2023-05-10T06:16:47;17.53;67.08
73112;HTU21D;61301;51.956;5.876;2023-05-10T06:19:13;17.53;67.11
73112;HTU21D;61301;51.956;5.876;2023-05-10T06:21:39;17.59;67.08
73112;HTU21D;61301;51.956;5.876;2023-05-10T06:24:05;17.64;67.04
73112;HTU21D;61301;51.956;5.876;2023-05-10T06:26:33;17.70;66.87
73112;HTU21D;61301;51.956;5.876;2023-05-10T06:28:59;17.69;66.94
73112;HTU21D;61301;51.956;5.876;2023-05-10T06:31:25;17.67;66.92
73112;HTU21D;61301;51.956;5.876;2023-05-10T06:33:51;17.65;66.98
73112;HTU21D;61301;51.956;5.876;2023-05-10T06:36:17;17.81;66.72
73112;HTU21D;61301;51.956;5.876;2023-05-10T06:38:43;17.77;66.62
73112;HTU21D;61301;51.956;5.876;2023-05-10T06:41:09;17.90;66.14
73112;HTU21D;61301;51.956;5.876;2023-05-10T06:43:35;17.95;65.89
73112;HTU21D;61301;51.956;5.876;2023-05-10T06:46:01;17.94;65.91
73112;HTU21D;61301;51.956;5.876;2023-05-10T06:48:27;17.98;65.98
73112;HTU21D;61301;51.956;5.876;2023-05-10T06:50:53;17.96;65.92
73112;HTU21D;61301;51.956;5.876;2023-05-10T06:53:19;17.87;66.11
73112;HTU21D;61301;51.956;5.876;2023-05-10T06:55:45;17.79;66.43
73112;HTU21D;61301;51.956;5.876;2023-05-10T06:58:11;17.79;66.65
73112;HTU21D;61301;51.956;5.876;2023-05-10T07:00:37;17.85;66.48
73112;HTU21D;61301;51.956;5.876;2023-05-10T07:03:06;17.83;66.36
73112;HTU21D;61301;51.956;5.876;2023-05-10T07:05:32;17.88;66.30
73112;HTU21D;61301;51.956;5.876;2023-05-10T07:07:58;17.92;66.07
73112;HTU21D;61301;51.956;5.876;2023-05-10T07:10:24;17.95;65.98
73112;HTU21D;61301;51.956;5.876;2023-05-10T07:12:50;18.05;65.75
73112;HTU21D;61301;51.956;5.876;2023-05-10T07:15:16;18.00;65.88
73112;HTU21D;61301;51.956;5.876;2023-05-10T07:17:42;17.95;66.16
73112;HTU21D;61301;51.956;5.876;2023-05-10T07:20:08;17.75;66.26
73112;HTU21D;61301;51.956;5.876;2023-05-10T07:22:34;17.76;66.14
73112;HTU21D;61301;51.956;5.876;2023-05-10T07:25:00;17.67;66.53
73112;HTU21D;61301;51.956;5.876;2023-05-10T07:27:26;17.72;66.55
73112;HTU21D;61301;51.956;5.876;2023-05-10T07:29:52;17.79;66.42
73112;HTU21D;61301;51.956;5.876;2023-05-10T07:32:18;17.68;66.69
73112;HTU21D;61301;51.956;5.876;2023-05-10T07:34:44;17.72;66.88
73112;HTU21D;61301;51.956;5.876;2023-05-10T07:37:10;17.70;66.85
73112;HTU21D;61301;51.956;5.876;2023-05-10T07:39:37;17.77;66.90
73112;HTU21D;61301;51.956;5.876;2023-05-10T07:42:03;17.92;66.62
73112;HTU21D;61301;51.956;5.876;2023-05-10T07:44:29;17.88;67.10
73112;HTU21D;61301;51.956;5.876;2023-05-10T07:46:55;17.88;67.07
73112;HTU21D;61301;51.956;5.876;2023-05-10T07:49:21;17.94;66.76
73112;HTU21D;61301;51.956;5.876;2023-05-10T07:51:49;18.05;66.69
73112;HTU21D;61301;51.956;5.876;2023-05-10T07:54:15;18.08;66.62
73112;HTU21D;61301;51.956;5.876;2023-05-10T07:56:42;18.03;66.69
73112;HTU21D;61301;51.956;5.876;2023-05-10T07:59:16;18.23;66.27
73112;HTU21D;61301;51.956;5.876;2023-05-10T08:01:43;18.38;66.26
73112;HTU21D;61301;51.956;5.876;2023-05-10T08:04:09;18.46;66.37
73112;HTU21D;61301;51.956;5.876;2023-05-10T08:06:35;18.34;66.01
73112;HTU21D;61301;51.956;5.876;2023-05-10T08:09:01;18.37;65.89
73112;HTU21D;61301;51.956;5.876;2023-05-10T08:11:28;18.40;65.69
73112;HTU21D;61301;51.956;5.876;2023-05-10T08:13:54;18.51;65.27
73112;HTU21D;61301;51.956;5.876;2023-05-10T08:16:20;18.58;65.26
73112;HTU21D;61301;51.956;5.876;2023-05-10T08:18:46;18.64;64.85
73112;HTU21D;61301;51.956;5.876;2023-05-10T08:21:13;18.53;64.63
73112;HTU21D;61301;51.956;5.876;2023-05-10T08:23:40;18.65;64.08
73112;HTU21D;61301;51.956;5.876;2023-05-10T08:26:06;18.65;64.14
73112;HTU21D;61301;51.956;5.876;2023-05-10T08:28:32;18.68;63.83
73112;HTU21D;61301;51.956;5.876;2023-05-10T08:30:58;18.72;63.27
73112;HTU21D;61301;51.956;5.876;2023-05-10T08:33:24;18.76;63.49
73112;HTU21D;61301;51.956;5.876;2023-05-10T08:35:50;18.83;63.33
73112;HTU21D;61301;51.956;5.876;2023-05-10T08:38:17;18.87;63.17
73112;HTU21D;61301;51.956;5.876;2023-05-10T08:40:44;18.91;63.20
73112;HTU21D;61301;51.956;5.876;2023-05-10T08:43:12;18.96;62.81
73112;HTU21D;61301;51.956;5.876;2023-05-10T08:45:40;18.85;62.11
73112;HTU21D;61301;51.956;5.876;2023-05-10T08:48:07;18.85;61.90
73112;HTU21D;61301;51.956;5.876;2023-05-10T08:50:36;18.69;60.76
73112;HTU21D;61301;51.956;5.876;2023-05-10T08:53:05;18.59;61.40
73112;HTU21D;61301;51.956;5.876;2023-05-10T08:55:33;18.46;61.88
73112;HTU21D;61301;51.956;5.876;2023-05-10T08:58:02;18.48;61.99
73112;HTU21D;61301;51.956;5.876;2023-05-10T09:00:29;18.69;61.99
73112;HTU21D;61301;51.956;5.876;2023-05-10T09:02:55;18.95;61.88
73112;HTU21D;61301;51.956;5.876;2023-05-10T09:05:22;19.16;61.20
73112;HTU21D;61301;51.956;5.876;2023-05-10T09:07:48;19.43;60.84
73112;HTU21D;61301;51.956;5.876;2023-05-10T09:10:15;19.48;59.20
73112;HTU21D;61301;51.956;5.876;2023-05-10T09:12:41;19.45;59.65
73112;HTU21D;61301;51.956;5.876;2023-05-10T09:15:09;19.55;59.22
73112;HTU21D;61301;51.956;5.876;2023-05-10T09:17:37;19.63;59.29
73112;HTU21D;61301;51.956;5.876;2023-05-10T09:20:04;19.74;58.66
73112;HTU21D;61301;51.956;5.876;2023-05-10T09:22:31;19.54;57.39
73112;HTU21D;61301;51.956;5.876;2023-05-10T09:25:08;19.40;56.52
73112;HTU21D;61301;51.956;5.876;2023-05-10T09:27:35;19.30;57.69
73112;HTU21D;61301;51.956;5.876;2023-05-10T09:30:05;19.43;57.86
73112;HTU21D;61301;51.956;5.876;2023-05-10T09:35:14;19.58;57.56
73112;HTU21D;61301;51.956;5.876;2023-05-10T09:37:42;19.72;57.88
73112;HTU21D;61301;51.956;5.876;2023-05-10T09:40:14;19.90;57.78
73112;HTU21D;61301;51.956;5.876;2023-05-10T09:42:43;20.09;57.72
73112;HTU21D;61301;51.956;5.876;2023-05-10T09:45:16;20.12;56.52
73112;HTU21D;61301;51.956;5.876;2023-05-10T09:47:42;20.19;56.70
73112;HTU21D;61301;51.956;5.876;2023-05-10T09:50:09;20.14;55.95
73112;HTU21D;61301;51.956;5.876;2023-05-10T09:55:22;19.60;55.88
73112;HTU21D;61301;51.956;5.876;2023-05-10T09:57:49;19.58;56.40
73112;HTU21D;61301;51.956;5.876;2023-05-10T10:00:19;19.71;56.94
73112;HTU21D;61301;51.956;5.876;2023-05-10T10:02:54;19.88;56.29
73112;HTU21D;61301;51.956;5.876;2023-05-10T10:05:20;19.81;56.38
73112;HTU21D;61301;51.956;5.876;2023-05-10T10:07:47;19.75;54.37
73112;HTU21D;61301;51.956;5.876;2023-05-10T10:10:14;19.74;55.55
73112;HTU21D;61301;51.956;5.876;2023-05-10T10:12:41;19.53;54.55
73112;HTU21D;61301;51.956;5.876;2023-05-10T10:15:08;19.45;55.15
73112;HTU21D;61301;51.956;5.876;2023-05-10T10:17:36;19.53;55.80
73112;HTU21D;61301;51.956;5.876;2023-05-10T10:20:03;19.71;55.59
73112;HTU21D;61301;51.956;5.876;2023-05-10T10:22:29;19.80;54.93
73112;HTU21D;61301;51.956;5.876;2023-05-10T10:24:55;19.68;54.89
73112;HTU21D;61301;51.956;5.876;2023-05-10T10:27:26;19.77;55.49
73112;HTU21D;61301;51.956;5.876;2023-05-10T10:35:29;19.97;55.94
73112;HTU21D;61301;51.956;5.876;2023-05-10T10:37:56;20.11;55.98
73112;HTU21D;61301;51.956;5.876;2023-05-10T10:40:30;20.22;55.75
73112;HTU21D;61301;51.956;5.876;2023-05-10T10:42:56;20.26;55.58
73112;HTU21D;61301;51.956;5.876;2023-05-10T10:45:23;20.20;56.13
73112;HTU21D;61301;51.956;5.876;2023-05-10T10:48:19;20.26;56.17
73112;HTU21D;61301;51.956;5.876;2023-05-10T10:50:44;20.30;56.48
73112;HTU21D;61301;51.956;5.876;2023-05-10T10:53:11;19.98;54.91
73112;HTU21D;61301;51.956;5.876;2023-05-10T10:55:46;19.95;56.21
73112;HTU21D;61301;51.956;5.876;2023-05-10T10:58:28;20.17;56.30
73112;HTU21D;61301;51.956;5.876;2023-05-10T11:01:13;20.34;55.92
73112;HTU21D;61301;51.956;5.876;2023-05-10T11:03:39;20.47;56.20
73112;HTU21D;61301;51.956;5.876;2023-05-10T11:06:06;20.63;56.19
73112;HTU21D;61301;51.956;5.876;2023-05-10T11:08:35;20.78;56.08
73112;HTU21D;61301;51.956;5.876;2023-05-10T11:11:07;20.85;55.98
73112;HTU21D;61301;51.956;5.876;2023-05-10T11:13:41;20.96;56.10
73112;HTU21D;61301;51.956;5.876;2023-05-10T11:16:15;20.90;54.22
73112;HTU21D;61301;51.956;5.876;2023-05-10T11:19:05;20.74;54.12
73112;HTU21D;61301;51.956;5.876;2023-05-10T11:21:33;20.47;54.34
73112;HTU21D;61301;51.956;5.876;2023-05-10T11:24:01;20.42;54.11
73112;HTU21D;61301;51.956;5.876;2023-05-10T11:26:35;20.48;54.67
73112;HTU21D;61301;51.956;5.876;2023-05-10T11:29:01;20.54;54.32
73112;HTU21D;61301;51.956;5.876;2023-05-10T11:31:29;20.48;54.32
73112;HTU21D;61301;51.956;5.876;2023-05-10T11:33:59;20.60;54.87
73112;HTU21D;61301;51.956;5.876;2023-05-10T11:36:37;20.88;54.13
73112;HTU21D;61301;51.956;5.876;2023-05-10T11:39:03;20.94;53.98
73112;HTU21D;61301;51.956;5.876;2023-05-10T11:41:30;20.78;52.98
73112;HTU21D;61301;51.956;5.876;2023-05-10T11:43:57;20.86;53.54
73112;HTU21D;61301;51.956;5.876;2023-05-10T11:46:25;20.96;54.01
73112;HTU21D;61301;51.956;5.876;2023-05-10T11:49:00;21.03;53.35
73112;HTU21D;61301;51.956;5.876;2023-05-10T11:51:27;21.03;53.32
73112;HTU21D;61301;51.956;5.876;2023-05-10T11:53:55;21.04;53.38
73112;HTU21D;61301;51.956;5.876;2023-05-10T11:56:21;21.02;52.63
73112;HTU21D;61301;51.956;5.876;2023-05-10T11:58:56;21.07;51.80
73112;HTU21D;61301;51.956;5.876;2023-05-10T12:01:23;21.06;51.37
73112;HTU21D;61301;51.956;5.876;2023-05-10T12:03:50;21.18;52.19
73112;HTU21D;61301;51.956;5.876;2023-05-10T12:06:18;21.45;52.69
73112;HTU21D;61301;51.956;5.876;2023-05-10T12:08:46;21.69;52.45
73112;HTU21D;61301;51.956;5.876;2023-05-10T12:11:13;21.75;50.21
73112;HTU21D;61301;51.956;5.876;2023-05-10T12:13:43;21.81;51.33
73112;HTU21D;61301;51.956;5.876;2023-05-10T12:16:16;22.07;50.59
73112;HTU21D;61301;51.956;5.876;2023-05-10T12:18:42;22.07;50.66
73112;HTU21D;61301;51.956;5.876;2023-05-10T12:21:12;22.10;50.63
73112;HTU21D;61301;51.956;5.876;2023-05-10T12:23:39;22.28;50.21
73112;HTU21D;61301;51.956;5.876;2023-05-10T12:26:05;22.37;50.43
73112;HTU21D;61301;51.956;5.876;2023-05-10T12:28:32;22.56;50.38
73112;HTU21D;61301;51.956;5.876;2023-05-10T12:30:59;22.63;49.98
73112;HTU21D;61301;51.956;5.876;2023-05-10T12:33:25;22.64;50.15
73112;HTU21D;61301;51.956;5.876;2023-05-10T12:35:53;22.44;49.08
73112;HTU21D;61301;51.956;5.876;2023-05-10T12:38:31;22.16;47.78
73112;HTU21D;61301;51.956;5.876;2023-05-10T12:40:59;22.10;49.21
73112;HTU21D;61301;51.956;5.876;2023-05-10T12:43:25;22.13;49.34
73112;HTU21D;61301;51.956;5.876;2023-05-10T12:45:52;22.32;49.57
73112;HTU21D;61301;51.956;5.876;2023-05-10T12:48:18;22.28;48.74
73112;HTU21D;61301;51.956;5.876;2023-05-10T12:50:45;22.24;48.59
73112;HTU21D;61301;51.956;5.876;2023-05-10T12:53:13;22.05;48.50
73112;HTU21D;61301;51.956;5.876;2023-05-10T12:55:41;21.92;49.30
73112;HTU21D;61301;51.956;5.876;2023-05-10T12:58:08;22.16;49.60
73112;HTU21D;61301;51.956;5.876;2023-05-10T13:00:34;22.39;50.04
73112;HTU21D;61301;51.956;5.876;2023-05-10T13:03:00;22.37;48.18
73112;HTU21D;61301;51.956;5.876;2023-05-10T13:05:26;22.48;49.00
73112;HTU21D;61301;51.956;5.876;2023-05-10T13:07:52;22.54;48.31
73112;HTU21D;61301;51.956;5.876;2023-05-10T13:10:18;22.35;48.57
73112;HTU21D;61301;51.956;5.876;2023-05-10T13:12:44;22.41;47.60
73112;HTU21D;61301;51.956;5.876;2023-05-10T13:15:10;22.18;48.31
73112;HTU21D;61301;51.956;5.876;2023-05-10T13:17:36;21.98;48.38
73112;HTU21D;61301;51.956;5.876;2023-05-10T13:20:04;22.16;49.15
73112;HTU21D;61301;51.956;5.876;2023-05-10T13:22:31;22.13;49.33
73112;HTU21D;61301;51.956;5.876;2023-05-10T13:24:57;22.14;49.40
73112;HTU21D;61301;51.956;5.876;2023-05-10T13:27:23;22.27;48.03
73112;HTU21D;61301;51.956;5.876;2023-05-10T13:29:49;22.26;48.48
73112;HTU21D;61301;51.956;5.876;2023-05-10T13:32:15;22.13;49.06
73112;HTU21D;61301;51.956;5.876;2023-05-10T13:34:41;22.21;48.58
73112;HTU21D;61301;51.956;5.876;2023-05-10T13:37:07;21.84;49.85
73112;HTU21D;61301;51.956;5.876;2023-05-10T13:39:33;21.58;52.44
73112;HTU21D;61301;51.956;5.876;2023-05-10T13:42:00;21.23;53.83
73112;HTU21D;61301;51.956;5.876;2023-05-10T13:44:26;21.22;54.33
73112;HTU21D;61301;51.956;5.876;2023-05-10T13:46:52;21.33;53.78
73112;HTU21D;61301;51.956;5.876;2023-05-10T13:49:18;21.01;53.63
73112;HTU21D;61301;51.956;5.876;2023-05-10T13:51:44;20.92;54.42
73112;HTU21D;61301;51.956;5.876;2023-05-10T13:54:10;20.74;54.63
73112;HTU21D;61301;51.956;5.876;2023-05-10T13:56:36;20.59;55.07
73112;HTU21D;61301;51.956;5.876;2023-05-10T13:59:02;20.54;55.56
73112;HTU21D;61301;51.956;5.876;2023-05-10T14:01:28;20.39;56.32
73112;HTU21D;61301;51.956;5.876;2023-05-10T14:03:54;20.48;56.26
73112;HTU21D;61301;51.956;5.876;2023-05-10T14:06:20;20.31;55.68
73112;HTU21D;61301;51.956;5.876;2023-05-10T14:08:46;20.37;55.49
73112;HTU21D;61301;51.956;5.876;2023-05-10T14:11:12;20.36;55.39
73112;HTU21D;61301;51.956;5.876;2023-05-10T14:13:38;20.35;55.88
73112;HTU21D;61301;51.956;5.876;2023-05-10T14:16:04;20.40;56.00
73112;HTU21D;61301;51.956;5.876;2023-05-10T14:18:30;20.57;56.06
73112;HTU21D;61301;51.956;5.876;2023-05-10T14:20:56;20.51;55.74
73112;HTU21D;61301;51.956;5.876;2023-05-10T14:23:22;20.41;56.24
73112;HTU21D;61301;51.956;5.876;2023-05-10T14:25:52;20.45;56.41
73112;HTU21D;61301;51.956;5.876;2023-05-10T14:28:18;20.61;56.34
73112;HTU21D;61301;51.956;5.876;2023-05-10T14:30:44;20.46;56.80
73112;HTU21D;61301;51.956;5.876;2023-05-10T14:33:10;20.44;57.03
73112;HTU21D;61301;51.956;5.876;2023-05-10T14:35:36;20.64;56.81
73112;HTU21D;61301;51.956;5.876;2023-05-10T14:38:03;20.81;56.45
73112;HTU21D;61301;51.956;5.876;2023-05-10T14:40:29;20.81;55.75
73112;HTU21D;61301;51.956;5.876;2023-05-10T14:42:55;20.63;56.07
73112;HTU21D;61301;51.956;5.876;2023-05-10T14:45:22;20.59;55.90
73112;HTU21D;61301;51.956;5.876;2023-05-10T14:47:49;20.51;55.61
73112;HTU21D;61301;51.956;5.876;2023-05-10T14:50:15;20.57;55.42
73112;HTU21D;61301;51.956;5.876;2023-05-10T14:52:43;20.58;55.26
73112;HTU21D;61301;51.956;5.876;2023-05-10T14:55:10;20.37;55.55
73112;HTU21D;61301;51.956;5.876;2023-05-10T14:57:36;20.47;55.69
73112;HTU21D;61301;51.956;5.876;2023-05-10T15:00:03;20.47;55.54
73112;HTU21D;61301;51.956;5.876;2023-05-10T15:02:30;20.51;55.74
73112;HTU21D;61301;51.956;5.876;2023-05-10T15:04:56;20.61;55.42
73112;HTU21D;61301;51.956;5.876;2023-05-10T15:07:23;20.68;55.22
73112;HTU21D;61301;51.956;5.876;2023-05-10T15:09:52;20.81;55.26
73112;HTU21D;61301;51.956;5.876;2023-05-10T15:12:18;21.00;55.13
73112;HTU21D;61301;51.956;5.876;2023-05-10T15:14:44;21.09;54.66
73112;HTU21D;61301;51.956;5.876;2023-05-10T15:17:10;21.11;54.05
73112;HTU21D;61301;51.956;5.876;2023-05-10T15:19:36;20.81;53.72
73112;HTU21D;61301;51.956;5.876;2023-05-10T15:22:04;20.63;54.12
73112;HTU21D;61301;51.956;5.876;2023-05-10T15:24:31;20.63;54.55
73112;HTU21D;61301;51.956;5.876;2023-05-10T15:26:57;20.64;54.68
73112;HTU21D;61301;51.956;5.876;2023-05-10T15:29:23;20.59;54.15
73112;HTU21D;61301;51.956;5.876;2023-05-10T15:31:50;20.47;54.60
73112;HTU21D;61301;51.956;5.876;2023-05-10T15:34:16;20.47;54.50
73112;HTU21D;61301;51.956;5.876;2023-05-10T15:36:44;20.42;54.37
73112;HTU21D;61301;51.956;5.876;2023-05-10T15:39:10;20.39;55.03
73112;HTU21D;61301;51.956;5.876;2023-05-10T15:41:37;20.53;54.85
73112;HTU21D;61301;51.956;5.876;2023-05-10T15:44:03;20.55;54.68